sensor_id;sensor_type;location;lat;lon;timestamp;P1;durP1;ratioP1;P2;durP2;ratioP2
7931;SDS011;4011;49.424;10.894;2023-06-19T00:00:48;9.15;;;8.23;;
7931;SDS011;4011;49.424;10.894;2023-06-19T00:06:10;9.43;;;8.45;;
7931;SDS011;4011;49.424;10.894;2023-06-19T00:11:34;9.45;;;8.45;;
7931;SDS011;4011;49.424;10.894;2023-06-19T00:16:55;9.45;;;8.45;;
7931;SDS011;4011;49.424;10.894;2023-06-19T00:22:17;9.30;;;8.40;;
7931;SDS011;4011;49.424;10.894;2023-06-19T00:27:40;8.85;;;7.95;;
7931;SDS011;4011;49.424;10.894;2023-06-19T00:33:02;9.82;;;8.90;;
7931;SDS011;4011;49.424;10.894;2023-06-19T00:38:23;8.88;;;7.97;;
7931;SDS011;4011;49.424;10.894;2023-06-19T00:43:46;9.90;;;8.07;;
7931;SDS011;4011;49.424;10.894;2023-06-19T00:49:07;8.88;;;7.97;;
7931;SDS011;4011;49.424;10.894;2023-06-19T00:54:29;9.68;;;8.68;;
7931;SDS011;4011;49.424;10.894;2023-06-19T00:59:53;9.93;;;8.93;;
7931;SDS011;4011;49.424;10.894;2023-06-19T01:05:14;9.68;;;8.68;;
7931;SDS011;4011;49.424;10.894;2023-06-19T01:10:38;9.15;;;8.02;;
7931;SDS011;4011;49.424;10.894;2023-06-19T01:16:02;9.63;;;8.55;;
7931;SDS011;4011;49.424;10.894;2023-06-19T01:21:23;9.20;;;8.30;;
7931;SDS011;4011;49.424;10.894;2023-06-19T01:26:47;9.07;;;8.15;;
7931;SDS011;4011;49.424;10.894;2023-06-19T01:32:10;9.25;;;8.35;;
7931;SDS011;4011;49.424;10.894;2023-06-19T01:37:31;10.38;;;8.02;;
7931;SDS011;4011;49.424;10.894;2023-06-19T01:42:55;9.82;;;8.88;;
7931;SDS011;4011;49.424;10.894;2023-06-19T01:48:17;9.45;;;8.35;;
7931;SDS011;4011;49.424;10.894;2023-06-19T01:53:39;9.48;;;8.40;;
7931;SDS011;4011;49.424;10.894;2023-06-19T01:59:01;9.68;;;8.68;;
7931;SDS011;4011;49.424;10.894;2023-06-19T02:04:23;9.88;;;8.85;;
7931;SDS011;4011;49.424;10.894;2023-06-19T02:09:44;8.93;;;8.13;;
7931;SDS011;4011;49.424;10.894;2023-06-19T02:15:08;8.93;;;8.02;;
7931;SDS011;4011;49.424;10.894;2023-06-19T02:20:30;9.48;;;8.55;;
7931;SDS011;4011;49.424;10.894;2023-06-19T02:25:52;9.70;;;8.70;;
7931;SDS011;4011;49.424;10.894;2023-06-19T02:31:15;9.73;;;8.55;;
7931;SDS011;4011;49.424;10.894;2023-06-19T02:36:37;8.95;;;8.05;;
7931;SDS011;4011;49.424;10.894;2023-06-19T02:41:58;9.25;;;8.25;;
7931;SDS011;4011;49.424;10.894;2023-06-19T02:47:24;9.30;;;8.40;;
7931;SDS011;4011;49.424;10.894;2023-06-19T02:52:45;9.15;;;8.25;;
7931;SDS011;4011;49.424;10.894;2023-06-19T02:58:07;8.93;;;8.02;;
7931;SDS011;4011;49.424;10.894;2023-06-19T03:03:30;9.55;;;8.50;;
7931;SDS011;4011;49.424;10.894;2023-06-19T03:08:51;10.25;;;8.77;;
7931;SDS011;4011;49.424;10.894;2023-06-19T03:14:13;9.75;;;8.85;;
7931;SDS011;4011;49.424;10.894;2023-06-19T03:19:36;9.52;;;8.63;;
7931;SDS011;4011;49.424;10.894;2023-06-19T03:24:57;9.60;;;8.60;;
7931;SDS011;4011;49.424;10.894;2023-06-19T03:30:19;9.27;;;8.02;;
7931;SDS011;4011;49.424;10.894;2023-06-19T03:35:42;10.07;;;9.07;;
7931;SDS011;4011;49.424;10.894;2023-06-19T03:41:07;8.98;;;8.07;;
7931;SDS011;4011;49.424;10.894;2023-06-19T03:46:28;9.63;;;8.63;;
7931;SDS011;4011;49.424;10.894;2023-06-19T03:51:53;9.73;;;8.73;;
7931;SDS011;4011;49.424;10.894;2023-06-19T03:57:15;9.13;;;8.23;;
7931;SDS011;4011;49.424;10.894;2023-06-19T04:02:37;9.90;;;9.00;;
7931;SDS011;4011;49.424;10.894;2023-06-19T04:08:00;9.32;;;8.27;;
7931;SDS011;4011;49.424;10.894;2023-06-19T04:13:22;9.07;;;8.18;;
7931;SDS011;4011;49.424;10.894;2023-06-19T04:18:46;9.80;;;8.80;;
7931;SDS011;4011;49.424;10.894;2023-06-19T04:24:09;10.00;;;9.00;;
7931;SDS011;4011;49.424;10.894;2023-06-19T04:29:31;9.18;;;8.27;;
7931;SDS011;4011;49.424;10.894;2023-06-19T04:34:53;9.80;;;8.80;;
7931;SDS011;4011;49.424;10.894;2023-06-19T04:40:16;10.60;;;8.77;;
7931;SDS011;4011;49.424;10.894;2023-06-19T04:45:38;10.55;;;9.50;;
7931;SDS011;4011;49.424;10.894;2023-06-19T04:50:59;10.23;;;9.00;;
7931;SDS011;4011;49.424;10.894;2023-06-19T04:56:23;10.93;;;9.27;;
7931;SDS011;4011;49.424;10.894;2023-06-19T05:01:45;10.05;;;8.88;;
7931;SDS011;4011;49.424;10.894;2023-06-19T05:07:07;11.20;;;10.10;;
7931;SDS011;4011;49.424;10.894;2023-06-19T05:12:30;12.45;;;9.60;;
7931;SDS011;4011;49.424;10.894;2023-06-19T05:17:51;10.63;;;9.52;;
7931;SDS011;4011;49.424;10.894;2023-06-19T05:23:14;10.40;;;9.32;;
7931;SDS011;4011;49.424;10.894;2023-06-19T05:28:39;11.40;;;9.45;;
7931;SDS011;4011;49.424;10.894;2023-06-19T05:34:04;10.73;;;9.70;;
7931;SDS011;4011;49.424;10.894;2023-06-19T05:39:32;10.93;;;9.07;;
7931;SDS011;4011;49.424;10.894;2023-06-19T05:44:58;10.68;;;9.40;;
7931;SDS011;4011;49.424;10.894;2023-06-19T05:50:20;11.75;;;10.57;;
7931;SDS011;4011;49.424;10.894;2023-06-19T05:55:45;11.48;;;10.25;;
7931;SDS011;4011;49.424;10.894;2023-06-19T06:01:09;11.10;;;9.68;;
7931;SDS011;4011;49.424;10.894;2023-06-19T06:06:31;11.02;;;9.80;;
7931;SDS011;4011;49.424;10.894;2023-06-19T06:11:56;12.10;;;10.50;;
7931;SDS011;4011;49.424;10.894;2023-06-19T06:17:20;11.07;;;9.65;;
7931;SDS011;4011;49.424;10.894;2023-06-19T06:22:42;10.60;;;9.55;;
7931;SDS011;4011;49.424;10.894;2023-06-19T06:28:04;9.77;;;8.88;;
7931;SDS011;4011;49.424;10.894;2023-06-19T06:33:28;10.65;;;9.55;;
7931;SDS011;4011;49.424;10.894;2023-06-19T06:38:49;10.70;;;9.43;;
7931;SDS011;4011;49.424;10.894;2023-06-19T06:44:11;9.80;;;8.70;;
7931;SDS011;4011;49.424;10.894;2023-06-19T06:49:35;9.98;;;8.98;;
7931;SDS011;4011;49.424;10.894;2023-06-19T06:54:59;10.75;;;9.65;;
7931;SDS011;4011;49.424;10.894;2023-06-19T07:00:21;10.00;;;8.95;;
7931;SDS011;4011;49.424;10.894;2023-06-19T07:05:48;9.35;;;8.45;;
7931;SDS011;4011;49.424;10.894;2023-06-19T07:11:12;10.20;;;9.10;;
7931;SDS011;4011;49.424;10.894;2023-06-19T07:16:34;10.45;;;9.43;;
7931;SDS011;4011;49.424;10.894;2023-06-19T07:21:57;9.48;;;8.20;;
7931;SDS011;4011;49.424;10.894;2023-06-19T07:27:19;9.95;;;8.30;;
7931;SDS011;4011;49.424;10.894;2023-06-19T07:32:40;8.90;;;7.75;;
7931;SDS011;4011;49.424;10.894;2023-06-19T07:38:03;9.73;;;8.48;;
7931;SDS011;4011;49.424;10.894;2023-06-19T07:43:25;9.88;;;8.45;;
7931;SDS011;4011;49.424;10.894;2023-06-19T07:48:46;8.48;;;7.57;;
7931;SDS011;4011;49.424;10.894;2023-06-19T07:54:09;10.20;;;7.63;;
7931;SDS011;4011;49.424;10.894;2023-06-19T07:59:31;8.73;;;7.78;;
7931;SDS011;4011;49.424;10.894;2023-06-19T08:04:53;8.98;;;7.57;;
7931;SDS011;4011;49.424;10.894;2023-06-19T08:10:16;7.43;;;6.57;;
7931;SDS011;4011;49.424;10.894;2023-06-19T08:15:38;7.95;;;7.10;;
7931;SDS011;4011;49.424;10.894;2023-06-19T08:21:00;7.60;;;6.80;;
7931;SDS011;4011;49.424;10.894;2023-06-19T08:26:23;7.43;;;6.72;;
7931;SDS011;4011;49.424;10.894;2023-06-19T08:31:45;7.80;;;6.38;;
7931;SDS011;4011;49.424;10.894;2023-06-19T08:37:07;6.80;;;6.10;;
7931;SDS011;4011;49.424;10.894;2023-06-19T08:42:31;7.28;;;5.90;;
7931;SDS011;4011;49.424;10.894;2023-06-19T08:47:57;7.35;;;6.65;;
7931;SDS011;4011;49.424;10.894;2023-06-19T08:53:19;6.68;;;5.93;;
7931;SDS011;4011;49.424;10.894;2023-06-19T08:58:41;7.57;;;6.18;;
7931;SDS011;4011;49.424;10.894;2023-06-19T09:04:10;6.50;;;5.57;;
7931;SDS011;4011;49.424;10.894;2023-06-19T09:09:34;6.63;;;5.88;;
7931;SDS011;4011;49.424;10.894;2023-06-19T09:14:57;6.63;;;5.70;;
7931;SDS011;4011;49.424;10.894;2023-06-19T09:20:25;6.13;;;5.53;;
7931;SDS011;4011;49.424;10.894;2023-06-19T09:25:47;7.22;;;6.40;;
7931;SDS011;4011;49.424;10.894;2023-06-19T09:31:10;6.95;;;5.63;;
7931;SDS011;4011;49.424;10.894;2023-06-19T09:36:32;6.35;;;5.35;;
7931;SDS011;4011;49.424;10.894;2023-06-19T09:41:54;6.47;;;5.00;;
7931;SDS011;4011;49.424;10.894;2023-06-19T09:47:21;7.45;;;5.82;;
7931;SDS011;4011;49.424;10.894;2023-06-19T09:58:06;9.00;;;5.05;;
7931;SDS011;4011;49.424;10.894;2023-06-19T10:03:42;7.45;;;5.75;;
7931;SDS011;4011;49.424;10.894;2023-06-19T10:09:07;7.00;;;5.88;;
7931;SDS011;4011;49.424;10.894;2023-06-19T10:19:51;7.10;;;5.32;;
7931;SDS011;4011;49.424;10.894;2023-06-19T10:25:19;6.80;;;5.05;;
7931;SDS011;4011;49.424;10.894;2023-06-19T10:30:41;6.32;;;5.28;;
7931;SDS011;4011;49.424;10.894;2023-06-19T10:36:14;6.80;;;5.28;;
7931;SDS011;4011;49.424;10.894;2023-06-19T10:41:39;6.68;;;5.03;;
7931;SDS011;4011;49.424;10.894;2023-06-19T10:47:04;6.63;;;5.47;;
7931;SDS011;4011;49.424;10.894;2023-06-19T10:52:29;6.03;;;4.63;;
7931;SDS011;4011;49.424;10.894;2023-06-19T10:57:51;7.90;;;4.97;;
7931;SDS011;4011;49.424;10.894;2023-06-19T11:03:12;7.57;;;4.38;;
7931;SDS011;4011;49.424;10.894;2023-06-19T11:08:36;5.85;;;5.07;;
7931;SDS011;4011;49.424;10.894;2023-06-19T11:13:57;5.00;;;4.50;;
7931;SDS011;4011;49.424;10.894;2023-06-19T11:19:19;6.50;;;4.78;;
7931;SDS011;4011;49.424;10.894;2023-06-19T11:24:46;5.38;;;4.30;;
7931;SDS011;4011;49.424;10.894;2023-06-19T11:30:08;7.90;;;4.88;;
7931;SDS011;4011;49.424;10.894;2023-06-19T11:35:34;5.85;;;4.32;;
7931;SDS011;4011;49.424;10.894;2023-06-19T11:40:59;6.28;;;4.20;;
7931;SDS011;4011;49.424;10.894;2023-06-19T11:46:27;6.32;;;4.72;;
7931;SDS011;4011;49.424;10.894;2023-06-19T11:51:49;5.85;;;4.63;;
7931;SDS011;4011;49.424;10.894;2023-06-19T11:57:12;5.38;;;3.92;;
7931;SDS011;4011;49.424;10.894;2023-06-19T12:02:34;6.32;;;4.30;;
7931;SDS011;4011;49.424;10.894;2023-06-19T12:07:55;6.03;;;4.30;;
7931;SDS011;4011;49.424;10.894;2023-06-19T12:13:20;5.50;;;4.60;;
7931;SDS011;4011;49.424;10.894;2023-06-19T12:18:41;5.43;;;4.15;;
7931;SDS011;4011;49.424;10.894;2023-06-19T12:24:04;4.65;;;4.15;;
7931;SDS011;4011;49.424;10.894;2023-06-19T12:29:27;5.13;;;3.92;;
7931;SDS011;4011;49.424;10.894;2023-06-19T12:34:51;4.90;;;4.40;;
7931;SDS011;4011;49.424;10.894;2023-06-19T12:40:14;4.60;;;3.97;;
7931;SDS011;4011;49.424;10.894;2023-06-19T12:45:38;5.40;;;4.57;;
7931;SDS011;4011;49.424;10.894;2023-06-19T12:51:01;5.20;;;4.30;;
7931;SDS011;4011;49.424;10.894;2023-06-19T12:56:23;4.85;;;4.35;;
7931;SDS011;4011;49.424;10.894;2023-06-19T13:01:47;5.05;;;4.00;;
7931;SDS011;4011;49.424;10.894;2023-06-19T13:07:09;5.07;;;4.03;;
7931;SDS011;4011;49.424;10.894;2023-06-19T13:12:30;4.57;;;3.70;;
7931;SDS011;4011;49.424;10.894;2023-06-19T13:17:54;6.03;;;4.30;;
7931;SDS011;4011;49.424;10.894;2023-06-19T13:23:15;4.90;;;4.10;;
7931;SDS011;4011;49.424;10.894;2023-06-19T13:28:37;4.78;;;3.67;;
7931;SDS011;4011;49.424;10.894;2023-06-19T13:34:01;4.90;;;3.88;;
7931;SDS011;4011;49.424;10.894;2023-06-19T13:39:22;4.75;;;3.97;;
7931;SDS011;4011;49.424;10.894;2023-06-19T13:44:44;4.72;;;4.22;;
7931;SDS011;4011;49.424;10.894;2023-06-19T13:50:07;5.15;;;3.80;;
7931;SDS011;4011;49.424;10.894;2023-06-19T13:55:31;4.80;;;3.90;;
7931;SDS011;4011;49.424;10.894;2023-06-19T14:00:55;4.75;;;4.05;;
7931;SDS011;4011;49.424;10.894;2023-06-19T14:06:18;4.90;;;4.32;;
7931;SDS011;4011;49.424;10.894;2023-06-19T14:11:40;5.05;;;3.72;;
7931;SDS011;4011;49.424;10.894;2023-06-19T14:17:02;4.85;;;3.72;;
7931;SDS011;4011;49.424;10.894;2023-06-19T14:22:25;4.88;;;4.10;;
7931;SDS011;4011;49.424;10.894;2023-06-19T14:27:46;5.40;;;4.60;;
7931;SDS011;4011;49.424;10.894;2023-06-19T14:33:08;5.07;;;4.20;;
7931;SDS011;4011;49.424;10.894;2023-06-19T14:38:36;5.43;;;4.10;;
7931;SDS011;4011;49.424;10.894;2023-06-19T14:43:58;5.13;;;4.10;;
7931;SDS011;4011;49.424;10.894;2023-06-19T14:49:20;5.80;;;4.93;;
7931;SDS011;4011;49.424;10.894;2023-06-19T14:54:43;8.02;;;4.97;;
7931;SDS011;4011;49.424;10.894;2023-06-19T15:00:07;8.43;;;4.60;;
7931;SDS011;4011;49.424;10.894;2023-06-19T15:05:31;9.73;;;4.47;;
7931;SDS011;4011;49.424;10.894;2023-06-19T15:10:57;7.50;;;4.78;;
7931;SDS011;4011;49.424;10.894;2023-06-19T15:16:19;6.50;;;4.28;;
7931;SDS011;4011;49.424;10.894;2023-06-19T15:21:42;6.60;;;4.03;;
7931;SDS011;4011;49.424;10.894;2023-06-19T15:27:05;6.78;;;4.05;;
7931;SDS011;4011;49.424;10.894;2023-06-19T15:32:26;8.55;;;4.70;;
7931;SDS011;4011;49.424;10.894;2023-06-19T15:37:48;8.68;;;4.13;;
7931;SDS011;4011;49.424;10.894;2023-06-19T15:43:11;8.10;;;3.97;;
7931;SDS011;4011;49.424;10.894;2023-06-19T15:48:32;5.88;;;3.78;;
7931;SDS011;4011;49.424;10.894;2023-06-19T15:53:54;7.15;;;3.85;;
7931;SDS011;4011;49.424;10.894;2023-06-19T15:59:17;8.07;;;3.92;;
7931;SDS011;4011;49.424;10.894;2023-06-19T16:04:39;7.63;;;3.97;;
7931;SDS011;4011;49.424;10.894;2023-06-19T16:10:01;6.55;;;3.72;;
7931;SDS011;4011;49.424;10.894;2023-06-19T16:15:23;6.03;;;3.80;;
7931;SDS011;4011;49.424;10.894;2023-06-19T16:20:49;6.57;;;4.22;;
7931;SDS011;4011;49.424;10.894;2023-06-19T16:26:10;5.40;;;3.53;;
7931;SDS011;4011;49.424;10.894;2023-06-19T16:31:34;5.88;;;3.92;;
7931;SDS011;4011;49.424;10.894;2023-06-19T16:36:55;5.78;;;3.78;;
7931;SDS011;4011;49.424;10.894;2023-06-19T16:42:17;7.97;;;4.65;;
7931;SDS011;4011;49.424;10.894;2023-06-19T16:47:41;7.07;;;3.90;;
7931;SDS011;4011;49.424;10.894;2023-06-19T16:53:02;5.38;;;3.95;;
7931;SDS011;4011;49.424;10.894;2023-06-19T16:58:26;6.15;;;3.95;;
7931;SDS011;4011;49.424;10.894;2023-06-19T17:03:48;6.90;;;4.60;;
7931;SDS011;4011;49.424;10.894;2023-06-19T17:09:10;5.53;;;3.63;;
7931;SDS011;4011;49.424;10.894;2023-06-19T17:14:32;5.60;;;3.90;;
7931;SDS011;4011;49.424;10.894;2023-06-19T17:19:55;6.07;;;3.78;;
7931;SDS011;4011;49.424;10.894;2023-06-19T17:25:16;6.95;;;3.72;;
7931;SDS011;4011;49.424;10.894;2023-06-19T17:30:38;5.60;;;4.00;;
7931;SDS011;4011;49.424;10.894;2023-06-19T17:36:02;5.35;;;3.65;;
7931;SDS011;4011;49.424;10.894;2023-06-19T17:41:24;6.13;;;3.88;;
7931;SDS011;4011;49.424;10.894;2023-06-19T17:46:46;4.50;;;3.65;;
7931;SDS011;4011;49.424;10.894;2023-06-19T17:52:09;4.97;;;4.15;;
7931;SDS011;4011;49.424;10.894;2023-06-19T17:57:31;5.82;;;3.75;;
7931;SDS011;4011;49.424;10.894;2023-06-19T18:02:53;4.90;;;3.58;;
7931;SDS011;4011;49.424;10.894;2023-06-19T18:08:16;4.82;;;3.78;;
7931;SDS011;4011;49.424;10.894;2023-06-19T18:13:37;4.78;;;3.90;;
7931;SDS011;4011;49.424;10.894;2023-06-19T18:18:58;4.80;;;3.67;;
7931;SDS011;4011;49.424;10.894;2023-06-19T18:24:21;4.95;;;3.83;;
7931;SDS011;4011;49.424;10.894;2023-06-19T18:29:43;5.43;;;3.70;;
7931;SDS011;4011;49.424;10.894;2023-06-19T18:35:04;5.40;;;4.00;;
7931;SDS011;4011;49.424;10.894;2023-06-19T18:40:28;6.55;;;4.28;;
7931;SDS011;4011;49.424;10.894;2023-06-19T18:45:49;5.57;;;4.15;;
7931;SDS011;4011;49.424;10.894;2023-06-19T18:51:12;4.85;;;3.90;;
7931;SDS011;4011;49.424;10.894;2023-06-19T18:56:35;4.90;;;4.28;;
7931;SDS011;4011;49.424;10.894;2023-06-19T19:01:57;4.93;;;4.22;;
7931;SDS011;4011;49.424;10.894;2023-06-19T19:07:18;5.60;;;4.35;;
7931;SDS011;4011;49.424;10.894;2023-06-19T19:18:29;5.35;;;4.43;;
7931;SDS011;4011;49.424;10.894;2023-06-19T19:23:50;5.00;;;4.10;;
7931;SDS011;4011;49.424;10.894;2023-06-19T19:29:11;5.15;;;4.20;;
7931;SDS011;4011;49.424;10.894;2023-06-19T19:34:35;5.38;;;3.97;;
7931;SDS011;4011;49.424;10.894;2023-06-19T19:39:56;6.75;;;4.68;;
7931;SDS011;4011;49.424;10.894;2023-06-19T19:45:18;4.70;;;3.97;;
7931;SDS011;4011;49.424;10.894;2023-06-19T19:50:41;6.35;;;4.45;;
7931;SDS011;4011;49.424;10.894;2023-06-19T19:56:03;5.50;;;4.28;;
7931;SDS011;4011;49.424;10.894;2023-06-19T20:01:25;6.20;;;4.70;;
7931;SDS011;4011;49.424;10.894;2023-06-19T20:06:47;5.55;;;4.32;;
7931;SDS011;4011;49.424;10.894;2023-06-19T20:12:12;5.57;;;4.25;;
7931;SDS011;4011;49.424;10.894;2023-06-19T20:17:34;7.75;;;4.78;;
7931;SDS011;4011;49.424;10.894;2023-06-19T20:22:57;5.22;;;4.72;;
7931;SDS011;4011;49.424;10.894;2023-06-19T20:28:20;5.82;;;4.60;;
7931;SDS011;4011;49.424;10.894;2023-06-19T20:33:41;6.30;;;4.50;;
7931;SDS011;4011;49.424;10.894;2023-06-19T20:39:04;6.65;;;4.45;;
7931;SDS011;4011;49.424;10.894;2023-06-19T20:44:27;6.40;;;4.65;;
7931;SDS011;4011;49.424;10.894;2023-06-19T20:49:49;5.07;;;4.45;;
7931;SDS011;4011;49.424;10.894;2023-06-19T20:55:12;6.45;;;4.75;;
7931;SDS011;4011;49.424;10.894;2023-06-19T21:00:34;6.05;;;4.55;;
7931;SDS011;4011;49.424;10.894;2023-06-19T21:05:56;6.05;;;5.10;;
7931;SDS011;4011;49.424;10.894;2023-06-19T21:11:19;6.88;;;5.50;;
7931;SDS011;4011;49.424;10.894;2023-06-19T21:16:40;6.88;;;5.03;;
7931;SDS011;4011;49.424;10.894;2023-06-19T21:22:02;5.50;;;4.88;;
7931;SDS011;4011;49.424;10.894;2023-06-19T21:27:25;5.55;;;4.97;;
7931;SDS011;4011;49.424;10.894;2023-06-19T21:32:47;5.75;;;5.05;;
7931;SDS011;4011;49.424;10.894;2023-06-19T21:38:09;6.22;;;4.95;;
7931;SDS011;4011;49.424;10.894;2023-06-19T21:43:33;5.78;;;4.75;;
7931;SDS011;4011;49.424;10.894;2023-06-19T21:48:54;5.70;;;4.80;;
7931;SDS011;4011;49.424;10.894;2023-06-19T21:54:17;5.47;;;4.70;;
7931;SDS011;4011;49.424;10.894;2023-06-19T21:59:39;6.22;;;5.18;;
7931;SDS011;4011;49.424;10.894;2023-06-19T22:05:01;5.55;;;4.47;;
7931;SDS011;4011;49.424;10.894;2023-06-19T22:10:23;5.78;;;5.13;;
7931;SDS011;4011;49.424;10.894;2023-06-19T22:15:46;5.80;;;4.55;;
7931;SDS011;4011;49.424;10.894;2023-06-19T22:21:07;5.57;;;4.72;;
7931;SDS011;4011;49.424;10.894;2023-06-19T22:26:30;5.55;;;4.95;;
7931;SDS011;4011;49.424;10.894;2023-06-19T22:31:58;5.70;;;4.80;;
7931;SDS011;4011;49.424;10.894;2023-06-19T22:37:19;5.93;;;4.60;;
7931;SDS011;4011;49.424;10.894;2023-06-19T22:42:41;5.30;;;4.75;;
7931;SDS011;4011;49.424;10.894;2023-06-19T22:48:04;5.57;;;4.82;;
7931;SDS011;4011;49.424;10.894;2023-06-19T22:53:26;7.25;;;5.28;;
7931;SDS011;4011;49.424;10.894;2023-06-19T22:58:48;6.18;;;4.63;;
7931;SDS011;4011;49.424;10.894;2023-06-19T23:04:11;5.68;;;5.03;;
7931;SDS011;4011;49.424;10.894;2023-06-19T23:09:32;5.47;;;4.90;;
7931;SDS011;4011;49.424;10.894;2023-06-19T23:14:56;6.40;;;4.75;;
7931;SDS011;4011;49.424;10.894;2023-06-19T23:20:20;5.22;;;4.63;;
7931;SDS011;4011;49.424;10.894;2023-06-19T23:25:41;6.20;;;5.45;;
7931;SDS011;4011;49.424;10.894;2023-06-19T23:31:03;6.07;;;5.03;;
7931;SDS011;4011;49.424;10.894;2023-06-19T23:36:26;5.47;;;4.80;;
7931;SDS011;4011;49.424;10.894;2023-06-19T23:41:47;5.75;;;4.72;;
7931;SDS011;4011;49.424;10.894;2023-06-19T23:47:09;5.80;;;5.13;;
7931;SDS011;4011;49.424;10.894;2023-06-19T23:52:32;6.20;;;5.13;;
7931;SDS011;4011;49.424;10.894;2023-06-19T23:57:54;6.13;;;4.90;;
